Time;durP1;ratioP1;P1;durP2;ratioP2;P2;SDS_P1;SDS_P2;PMS_P1;PMS_P2;Temp;Humidity;BMP_temperature;BMP_pressure;BME280_temperature;BME280_humidity;BME280_pressure;Samples;Min_cycle;Max_cycle;Signal;HPM_P1;HPM_P2
2021/04/19 00:01:27;;;;;;;14.98;8.23;;;;;;;;;;5093258;28;20076;-65
2021/04/19 00:03:53;;;;;;;13.65;7.00;;;;;;;;;;5095289;28;20395;-65
2021/04/19 00:06:20;;;;;;;12.77;8.40;;;;;;;;;;5094913;28;20103;-65
2021/04/19 00:08:46;;;;;;;9.57;6.40;;;;;;;;;;5094609;28;20074;-65
2021/04/19 00:11:12;;;;;;;12.55;7.50;;;;;;;;;;5094840;28;20104;-65
2021/04/19 00:13:39;;;;;;;13.15;7.60;;;;;;;;;;5094521;28;20052;-65
2021/04/19 00:16:05;;;;;;;12.32;8.45;;;;;;;;;;5094309;28;20020;-65
2021/04/19 00:18:32;;;;;;;21.58;9.07;;;;;;;;;;5094685;28;20513;-65
2021/04/19 00:20:58;;;;;;;15.07;9.55;;;;;;;;;;5093322;28;20069;-65
2021/04/19 00:23:25;;;;;;;11.02;8.10;;;;;;;;;;5094141;28;20361;-65
2021/04/19 00:25:52;;;;;;;13.57;8.45;;;;;;;;;;5094434;28;20542;-65
2021/04/19 00:28:18;;;;;;;12.13;7.70;;;;;;;;;;5094645;28;20392;-66
2021/04/19 00:30:44;;;;;;;13.85;7.82;;;;;;;;;;5094213;28;20107;-65
2021/04/19 00:33:10;;;;;;;18.45;8.88;;;;;;;;;;5094213;28;20473;-65
2021/04/19 00:35:36;;;;;;;14.65;9.77;;;;;;;;;;5094388;28;20024;-65
2021/04/19 00:38:03;;;;;;;15.93;9.40;;;;;;;;;;5093839;28;20032;-65
2021/04/19 00:40:31;;;;;;;14.73;9.57;;;;;;;;;;5094250;28;20032;-65
2021/04/19 00:42:57;;;;;;;15.68;8.77;;;;;;;;;;5092913;28;20031;-65
2021/04/19 00:45:24;;;;;;;15.48;8.63;;;;;;;;;;5093599;28;20028;-65
2021/04/19 00:47:50;;;;;;;12.68;8.80;;;;;;;;;;5094163;28;20384;-65
2021/04/19 00:50:28;;;;;;;13.27;8.52;;;;;;;;;;5092918;28;20024;-65
2021/04/19 00:52:54;;;;;;;12.93;8.13;;;;;;;;;;5092629;28;20031;-65
2021/04/19 00:55:21;;;;;;;14.52;8.80;;;;;;;;;;5093921;28;20028;-65
2021/04/19 00:57:47;;;;;;;13.82;8.80;;;;;;;;;;5093520;28;20016;-65
2021/04/19 01:00:23;;;;;;;12.82;8.50;;;;;;;;;;5093828;28;20428;-65
2021/04/19 01:02:49;;;;;;;13.75;8.75;;;;;;;;;;5093794;28;20058;-65
2021/04/19 01:05:18;;;;;;;14.40;8.80;;;;;;;;;;5092021;28;20024;-65
2021/04/19 01:07:44;;;;;;;13.70;8.85;;;;;;;;;;5094002;28;20020;-65
2021/04/19 01:10:10;;;;;;;15.93;8.63;;;;;;;;;;5093847;28;20028;-65
2021/04/19 01:12:37;;;;;;;11.63;7.65;;;;;;;;;;5093059;28;20032;-65
2021/04/19 01:15:04;;;;;;;11.15;7.45;;;;;;;;;;5092270;28;20028;-65
2021/04/19 01:17:30;;;;;;;12.60;8.50;;;;;;;;;;5092260;28;20020;-65
2021/04/19 01:19:56;;;;;;;12.27;8.13;;;;;;;;;;5093021;28;20048;-65
2021/04/19 01:22:22;;;;;;;14.02;8.27;;;;;;;;;;5092961;28;20016;-65
2021/04/19 01:24:48;;;;;;;13.77;8.63;;;;;;;;;;5093348;28;20067;-65
2021/04/19 01:27:14;;;;;;;11.88;7.50;;;;;;;;;;5092919;28;20028;-66
2021/04/19 01:29:41;;;;;;;13.02;7.65;;;;;;;;;;5092194;28;20123;-65
2021/04/19 01:32:07;;;;;;;17.10;10.68;;;;;;;;;;5093388;28;20055;-65
2021/04/19 01:34:33;;;;;;;15.77;10.98;;;;;;;;;;5092721;28;20024;-65
2021/04/19 01:37:00;;;;;;;18.65;11.48;;;;;;;;;;5093155;28;20468;-65
2021/04/19 01:39:26;;;;;;;15.88;9.93;;;;;;;;;;5093113;28;20032;-65
2021/04/19 01:41:53;;;;;;;24.63;13.30;;;;;;;;;;5093059;28;20019;-65
2021/04/19 01:44:19;;;;;;;17.48;9.98;;;;;;;;;;5093078;28;20059;-65
2021/04/19 01:46:45;;;;;;;15.50;9.88;;;;;;;;;;5092693;28;20020;-65
2021/04/19 01:49:19;;;;;;;17.58;10.90;;;;;;;;;;5093198;28;20384;-65
2021/04/19 01:51:45;;;;;;;;;;;;;;;;;;5093605;28;20024;-65
2021/04/19 01:54:11;;;;;;;16.17;11.40;;;;;;;;;;5092521;28;19912;-65
2021/04/19 01:56:37;;;;;;;14.38;9.50;;;;;;;;;;5091660;28;20016;-65
2021/04/19 01:59:05;;;;;;;15.82;9.60;;;;;;;;;;5092846;28;20016;-65
2021/04/19 02:01:32;;;;;;;18.95;10.88;;;;;;;;;;5092450;28;20026;-65
2021/04/19 02:04:19;;;;;;;16.52;9.52;;;;;;;;;;5092858;28;20024;-65
2021/04/19 02:06:48;;;;;;;18.73;11.30;;;;;;;;;;5091536;28;20392;-65
2021/04/19 02:09:47;;;;;;;20.15;11.32;;;;;;;;;;5091189;28;20411;-65
2021/04/19 02:12:34;;;;;;;14.25;9.45;;;;;;;;;;5047787;28;20054;-65
2021/04/19 02:15:00;;;;;;;16.45;10.63;;;;;;;;;;5092314;28;20040;-65
2021/04/19 02:17:46;;;;;;;19.15;10.25;;;;;;;;;;5092694;28;20544;-66
2021/04/19 02:20:20;;;;;;;15.00;10.48;;;;;;;;;;5092530;28;20024;-65
2021/04/19 02:22:46;;;;;;;;;;;;;;;;;;5092666;28;20024;-66
2021/04/19 02:25:27;;;;;;;18.52;10.77;;;;;;;;;;5092575;28;19910;-65
2021/04/19 02:27:57;;;;;;;15.48;10.00;;;;;;;;;;5092747;28;20098;-65
2021/04/19 02:30:27;;;;;;;14.85;9.93;;;;;;;;;;5092193;28;20012;-65
2021/04/19 02:32:54;;;;;;;14.38;8.57;;;;;;;;;;5092378;28;20529;-65
2021/04/19 02:35:22;;;;;;;14.82;9.88;;;;;;;;;;5094663;28;20039;-65
2021/04/19 02:37:51;;;;;;;16.23;10.30;;;;;;;;;;5096549;28;20050;-65
2021/04/19 02:40:17;;;;;;;15.48;9.93;;;;;;;;;;5096595;28;20032;-65
2021/04/19 02:42:46;;;;;;;17.40;10.32;;;;;;;;;;5096536;28;20064;-65
2021/04/19 02:45:14;;;;;;;15.98;9.70;;;;;;;;;;5096409;28;20080;-65
2021/04/19 02:47:42;;;;;;;15.27;10.15;;;;;;;;;;5095247;28;20024;-65
2021/04/19 02:50:11;;;;;;;17.23;10.38;;;;;;;;;;5096153;28;20020;-65
2021/04/19 02:52:38;;;;;;;15.95;10.10;;;;;;;;;;5095018;28;20020;-65
2021/04/19 02:55:05;;;;;;;17.92;10.32;;;;;;;;;;5096343;28;20031;-65
2021/04/19 02:57:35;;;;;;;15.32;10.32;;;;;;;;;;5095639;28;20447;-65
2021/04/19 03:00:03;;;;;;;14.27;10.55;;;;;;;;;;5095204;28;20028;-67
2021/04/19 03:02:30;;;;;;;16.50;10.93;;;;;;;;;;5096100;28;20016;-65
2021/04/19 03:04:56;;;;;;;15.75;10.25;;;;;;;;;;5095686;28;20030;-65
2021/04/19 03:07:25;;;;;;;22.25;11.75;;;;;;;;;;5096028;28;20119;-65
2021/04/19 03:09:59;;;;;;;17.95;11.93;;;;;;;;;;5096236;28;20480;-65
2021/04/19 03:12:27;;;;;;;16.30;11.13;;;;;;;;;;5095478;28;20070;-65
2021/04/19 03:15:13;;;;;;;17.60;11.77;;;;;;;;;;5095973;28;20032;-65
2021/04/19 03:17:39;;;;;;;20.25;11.98;;;;;;;;;;5095746;28;20028;-65
2021/04/19 03:20:25;;;;;;;17.65;11.32;;;;;;;;;;5095440;28;20031;-65
2021/04/19 03:22:53;;;;;;;16.58;12.10;;;;;;;;;;5095801;28;20028;-65
2021/04/19 03:25:19;;;;;;;16.83;11.50;;;;;;;;;;5095363;28;20099;-65
2021/04/19 03:27:47;;;;;;;16.15;11.70;;;;;;;;;;5094299;28;20046;-65
2021/04/19 03:30:14;;;;;;;19.02;12.90;;;;;;;;;;5095891;28;20027;-66
2021/04/19 03:32:46;;;;;;;18.55;11.73;;;;;;;;;;5095186;28;20024;-65
2021/04/19 03:35:14;;;;;;;18.10;12.30;;;;;;;;;;5094238;28;20028;-65
2021/04/19 03:37:41;;;;;;;17.02;11.25;;;;;;;;;;5095413;28;20024;-65
2021/04/19 03:40:12;;;;;;;20.80;12.73;;;;;;;;;;5093883;28;20024;-65
2021/04/19 03:42:39;;;;;;;18.08;12.07;;;;;;;;;;5095383;28;20071;-65
2021/04/19 03:45:08;;;;;;;18.02;11.50;;;;;;;;;;5094832;28;20052;-65
2021/04/19 03:47:36;;;;;;;19.45;12.20;;;;;;;;;;5095203;28;20102;-65
2021/04/19 03:50:03;;;;;;;19.38;11.82;;;;;;;;;;5095338;28;20021;-65
2021/04/19 03:52:32;;;;;;;20.85;12.15;;;;;;;;;;5095236;28;20058;-65
2021/04/19 03:54:58;;;;;;;20.05;12.25;;;;;;;;;;5093535;28;20062;-65
2021/04/19 03:57:26;;;;;;;16.90;11.50;;;;;;;;;;5095081;28;20021;-65
2021/04/19 03:59:55;;;;;;;15.13;10.48;;;;;;;;;;5095111;28;20387;-65
2021/04/19 04:02:25;;;;;;;14.27;10.23;;;;;;;;;;5094581;28;20039;-65
2021/04/19 04:04:51;;;;;;;16.42;10.57;;;;;;;;;;5094971;28;20016;-66
2021/04/19 04:07:19;;;;;;;20.15;12.75;;;;;;;;;;5094485;28;20016;-65
2021/04/19 04:09:45;;;;;;;18.70;12.52;;;;;;;;;;5094972;28;20091;-65
2021/04/19 04:12:12;;;;;;;17.27;11.80;;;;;;;;;;5095018;28;20024;-65
2021/04/19 04:14:48;;;;;;;16.65;11.82;;;;;;;;;;5092845;28;20700;-65
2021/04/19 04:17:15;;;;;;;18.15;12.38;;;;;;;;;;5094803;28;20034;-65
2021/04/19 04:19:41;;;;;;;17.90;11.98;;;;;;;;;;5094637;28;20048;-65
2021/04/19 04:22:08;;;;;;;14.00;10.40;;;;;;;;;;5094524;28;20024;-65
2021/04/19 04:24:36;;;;;;;17.25;11.45;;;;;;;;;;5094499;28;20027;-65
2021/04/19 04:27:02;;;;;;;20.02;13.98;;;;;;;;;;5094616;28;20019;-65
2021/04/19 04:29:28;;;;;;;15.73;11.55;;;;;;;;;;5092870;28;20020;-65
2021/04/19 04:31:54;;;;;;;16.02;10.98;;;;;;;;;;5094459;28;20020;-65
2021/04/19 04:34:20;;;;;;;19.45;12.73;;;;;;;;;;5092972;28;20052;-65
2021/04/19 04:36:47;;;;;;;18.40;12.57;;;;;;;;;;5093872;28;20464;-65
2021/04/19 04:39:13;;;;;;;17.92;12.20;;;;;;;;;;5092925;28;20424;-65
2021/04/19 04:41:39;;;;;;;19.33;12.07;;;;;;;;;;5094226;28;20096;-65
2021/04/19 04:44:07;;;;;;;20.73;12.05;;;;;;;;;;5093775;28;20031;-65
2021/04/19 04:46:51;;;;;;;17.92;10.43;;;;;;;;;;5092918;28;20373;-65
2021/04/19 04:49:28;;;;;;;17.30;11.10;;;;;;;;;;5094292;28;20362;-65
2021/04/19 04:51:56;;;;;;;17.83;11.73;;;;;;;;;;5094060;28;20545;-65
2021/04/19 04:54:23;;;;;;;15.30;11.70;;;;;;;;;;5093924;28;20063;-65
2021/04/19 04:56:51;;;;;;;21.95;12.38;;;;;;;;;;5091983;28;20024;-65
2021/04/19 04:59:18;;;;;;;27.10;15.38;;;;;;;;;;5092605;28;20047;-68
2021/04/19 05:01:45;;;;;;;25.23;14.80;;;;;;;;;;5099480;28;20016;-68
2021/04/19 05:04:13;;;;;;;19.08;12.02;;;;;;;;;;5094757;28;20476;-68
2021/04/19 05:06:39;;;;;;;18.73;12.45;;;;;;;;;;5093811;28;20480;-68
2021/04/19 05:09:09;;;;;;;19.70;12.52;;;;;;;;;;5093781;28;20016;-68
2021/04/19 05:11:36;;;;;;;19.67;11.95;;;;;;;;;;5093124;28;20108;-67
2021/04/19 05:14:03;;;;;;;22.77;14.55;;;;;;;;;;5091938;28;20051;-67
2021/04/19 05:16:30;;;;;;;26.58;14.77;;;;;;;;;;5093451;28;20028;-67
2021/04/19 05:18:59;;;;;;;23.88;15.02;;;;;;;;;;5092648;28;20028;-67
2021/04/19 05:21:25;;;;;;;24.77;16.08;;;;;;;;;;5093192;28;20101;-67
2021/04/19 05:23:52;;;;;;;23.42;15.45;;;;;;;;;;5091732;28;20028;-68
2021/04/19 05:26:20;;;;;;;25.70;15.85;;;;;;;;;;5091077;28;20016;-67
2021/04/19 05:28:46;;;;;;;24.27;16.42;;;;;;;;;;5092096;28;20101;-68
2021/04/19 05:31:13;;;;;;;24.90;15.85;;;;;;;;;;5091824;28;20027;-68
2021/04/19 05:33:39;;;;;;;26.00;16.23;;;;;;;;;;5091473;28;20040;-68
2021/04/19 05:36:12;;;;;;;30.08;17.63;;;;;;;;;;5093151;28;20035;-69
2021/04/19 05:38:41;;;;;;;27.55;17.15;;;;;;;;;;5093162;28;20103;-67
2021/04/19 05:41:08;;;;;;;31.30;18.45;;;;;;;;;;5096249;28;20027;-67
2021/04/19 05:43:34;;;;;;;29.75;18.67;;;;;;;;;;5112710;28;20019;-68
2021/04/19 05:46:00;;;;;;;28.50;18.08;;;;;;;;;;5110991;28;20028;-67
2021/04/19 05:48:27;;;;;;;20.25;14.90;;;;;;;;;;5113316;28;20020;-66
2021/04/19 05:50:54;;;;;;;23.25;14.15;;;;;;;;;;5113171;28;20528;-68
2021/04/19 05:53:21;;;;;;;28.83;20.02;;;;;;;;;;5111024;28;20062;-69
2021/04/19 05:55:48;;;;;;;28.33;18.58;;;;;;;;;;5113128;28;20046;-67
2021/04/19 05:58:26;;;;;;;28.85;18.40;;;;;;;;;;5113014;28;20023;-67
2021/04/19 06:01:03;;;;;;;23.23;15.02;;;;;;;;;;5112488;28;20028;-67
2021/04/19 06:03:33;;;;;;;26.27;16.65;;;;;;;;;;5112977;28;20020;-67
2021/04/19 06:06:07;;;;;;;23.67;16.75;;;;;;;;;;5111580;28;20407;-68
2021/04/19 06:08:40;;;;;;;26.77;17.48;;;;;;;;;;5112481;28;20031;-67
2021/04/19 06:11:23;;;;;;;28.52;17.08;;;;;;;;;;5112927;28;20024;-67
2021/04/19 06:13:51;;;;;;;32.33;20.02;;;;;;;;;;5111906;28;20134;-66
2021/04/19 06:16:18;;;;;;;32.83;20.05;;;;;;;;;;5111420;28;20019;-68
2021/04/19 06:18:45;;;;;;;28.42;17.98;;;;;;;;;;5100853;28;20361;-67
2021/04/19 06:21:12;;;;;;;30.10;18.73;;;;;;;;;;5091913;28;20092;-68
2021/04/19 06:23:40;;;;;;;27.52;17.75;;;;;;;;;;5092330;28;20510;-68
2021/04/19 06:26:07;;;;;;;27.65;18.33;;;;;;;;;;5092293;28;20091;-68
2021/04/19 06:28:34;;;;;;;24.60;15.65;;;;;;;;;;5091967;28;20031;-67
2021/04/19 06:31:01;;;;;;;25.55;17.23;;;;;;;;;;5092277;28;20025;-68
2021/04/19 06:33:27;;;;;;;26.48;16.90;;;;;;;;;;5090683;28;20076;-70
2021/04/19 06:35:53;;;;;;;25.45;18.55;;;;;;;;;;5087138;28;20020;-70
2021/04/19 06:38:19;;;;;;;29.17;18.35;;;;;;;;;;5107117;28;20035;-69
2021/04/19 06:40:47;;;;;;;25.75;17.38;;;;;;;;;;5108358;28;20043;-69
2021/04/19 06:43:13;;;;;;;30.20;19.27;;;;;;;;;;5096158;28;20031;-70
2021/04/19 06:45:40;;;;;;;25.58;16.88;;;;;;;;;;5104238;28;20533;-67
2021/04/19 06:48:08;;;;;;;27.08;19.48;;;;;;;;;;5112594;28;20027;-69
2021/04/19 06:50:35;;;;;;;21.75;14.75;;;;;;;;;;5104860;28;20438;-67
2021/04/19 06:53:02;;;;;;;22.08;13.52;;;;;;;;;;5091675;28;20074;-67
2021/04/19 06:55:28;;;;;;;26.17;15.45;;;;;;;;;;5091790;28;20406;-69
2021/04/19 06:57:54;;;;;;;23.52;15.52;;;;;;;;;;5090120;28;20107;-70
2021/04/19 07:00:21;;;;;;;24.50;15.73;;;;;;;;;;5090432;28;20031;-68
2021/04/19 07:02:49;;;;;;;24.67;15.52;;;;;;;;;;5091296;28;20089;-68
2021/04/19 07:05:28;;;;;;;26.65;16.73;;;;;;;;;;5090921;28;20103;-68
2021/04/19 07:08:13;;;;;;;23.27;13.77;;;;;;;;;;5092094;28;20484;-72
2021/04/19 07:10:41;;;;;;;27.45;15.90;;;;;;;;;;5091599;28;20039;-67
2021/04/19 07:13:10;;;;;;;21.25;14.43;;;;;;;;;;5090956;28;20064;-69
2021/04/19 07:15:39;;;;;;;25.27;16.73;;;;;;;;;;5090087;28;20107;-67
2021/04/19 07:18:06;;;;;;;28.60;19.15;;;;;;;;;;5090467;28;20077;-68
2021/04/19 07:20:33;;;;;;;21.95;15.60;;;;;;;;;;5089266;28;20044;-68
2021/04/19 07:23:00;;;;;;;22.27;14.55;;;;;;;;;;5093688;28;20024;-67
2021/04/19 07:25:27;;;;;;;24.15;14.45;;;;;;;;;;5093158;28;20431;-67
2021/04/19 07:27:55;;;;;;;20.45;12.48;;;;;;;;;;5093650;28;20375;-66
2021/04/19 07:30:21;;;;;;;19.88;13.77;;;;;;;;;;5092221;28;20468;-67
2021/04/19 07:32:47;;;;;;;16.50;10.55;;;;;;;;;;5091542;28;20047;-67
2021/04/19 07:35:14;;;;;;;25.95;15.82;;;;;;;;;;5095005;28;20491;-67
2021/04/19 07:37:55;;;;;;;20.30;13.00;;;;;;;;;;5095309;28;20031;-67
2021/04/19 07:40:28;;;;;;;16.40;12.95;;;;;;;;;;5094538;28;20507;-67
2021/04/19 07:43:13;;;;;;;18.52;12.60;;;;;;;;;;5094449;28;20093;-67
2021/04/19 07:45:40;;;;;;;21.20;13.80;;;;;;;;;;5094116;28;20035;-66
2021/04/19 07:48:06;;;;;;;23.92;16.20;;;;;;;;;;5094758;28;20024;-66
2021/04/19 07:50:32;;;;;;;19.73;12.95;;;;;;;;;;5095064;28;20110;-67
2021/04/19 07:53:07;;;;;;;22.08;13.38;;;;;;;;;;5094338;28;20039;-67
2021/04/19 07:55:34;;;;;;;19.05;13.05;;;;;;;;;;5094493;28;20361;-68
2021/04/19 07:58:00;;;;;;;17.38;12.13;;;;;;;;;;5094981;28;20043;-68
2021/04/19 08:00:30;;;;;;;19.10;13.32;;;;;;;;;;5093124;28;20024;-68
2021/04/19 08:03:02;;;;;;;18.48;12.75;;;;;;;;;;5089595;28;20111;-66
2021/04/19 08:05:37;;;;;;;18.10;11.27;;;;;;;;;;5098764;28;20237;-67
2021/04/19 08:08:03;;;;;;;17.45;11.48;;;;;;;;;;5098950;28;20027;-67
2021/04/19 08:10:29;;;;;;;18.55;10.48;;;;;;;;;;5101864;28;20807;-67
2021/04/19 08:13:04;;;;;;;16.58;11.10;;;;;;;;;;5102811;28;20551;-67
2021/04/19 08:15:30;;;;;;;18.50;12.25;;;;;;;;;;5104623;28;20055;-66
2021/04/19 08:18:00;;;;;;;16.08;11.70;;;;;;;;;;5113228;28;20028;-66
2021/04/19 08:20:26;;;;;;;18.58;12.88;;;;;;;;;;5101886;28;20036;-66
2021/04/19 08:22:52;;;;;;;15.05;10.48;;;;;;;;;;5092077;28;20023;-66
2021/04/19 08:25:20;;;;;;;16.83;9.23;;;;;;;;;;5092472;28;20056;-67
2021/04/19 08:27:48;;;;;;;14.57;9.02;;;;;;;;;;5093246;28;20610;-68
2021/04/19 08:30:15;;;;;;;13.68;9.98;;;;;;;;;;5092756;28;20469;-68
2021/04/19 08:32:43;;;;;;;18.45;12.55;;;;;;;;;;5092026;28;20024;-68
2021/04/19 08:35:10;;;;;;;17.40;11.10;;;;;;;;;;5089318;28;20436;-67
2021/04/19 08:37:36;;;;;;;16.02;11.48;;;;;;;;;;5091749;28;20349;-67
2021/04/19 08:40:04;;;;;;;15.82;10.93;;;;;;;;;;5090644;28;20073;-68
2021/04/19 08:42:31;;;;;;;18.33;10.02;;;;;;;;;;5090540;28;20073;-67
2021/04/19 08:45:00;;;;;;;18.10;13.55;;;;;;;;;;5084349;28;20020;-67
2021/04/19 08:47:27;;;;;;;17.35;9.98;;;;;;;;;;5093075;28;20181;-67
2021/04/19 08:49:58;;;;;;;19.20;11.32;;;;;;;;;;5093052;28;20416;-67
2021/04/19 08:52:24;;;;;;;21.20;14.23;;;;;;;;;;5088145;28;20056;-68
2021/04/19 08:54:52;;;;;;;29.33;17.55;;;;;;;;;;5087234;28;20798;-67
2021/04/19 08:57:19;;;;;;;29.33;18.02;;;;;;;;;;5087191;28;20024;-67
2021/04/19 08:59:45;;;;;;;37.47;21.33;;;;;;;;;;5092274;28;20590;-66
2021/04/19 09:02:13;;;;;;;30.30;18.55;;;;;;;;;;5092889;28;20028;-66
2021/04/19 09:04:39;;;;;;;33.20;17.83;;;;;;;;;;5099748;28;20492;-67
2021/04/19 09:07:06;;;;;;;27.92;16.13;;;;;;;;;;5110730;28;20023;-66
2021/04/19 09:09:32;;;;;;;34.20;24.23;;;;;;;;;;5112689;28;20540;-66
2021/04/19 09:11:58;;;;;;;29.40;19.33;;;;;;;;;;5109447;28;20391;-66
2021/04/19 09:14:34;;;;;;;22.70;17.02;;;;;;;;;;5083943;28;20051;-66
2021/04/19 09:17:01;;;;;;;19.98;12.68;;;;;;;;;;5089289;28;20520;-66
2021/04/19 09:19:28;;;;;;;26.83;14.98;;;;;;;;;;5092148;28;20071;-66
2021/04/19 09:22:07;;;;;;;29.48;16.83;;;;;;;;;;5091994;28;20031;-67
2021/04/19 09:24:53;;;;;;;34.90;18.60;;;;;;;;;;5090624;28;20106;-66
2021/04/19 09:27:37;;;;;;;23.02;15.73;;;;;;;;;;5091036;28;20516;-66
2021/04/19 09:30:25;;;;;;;25.05;15.27;;;;;;;;;;5093063;28;20031;-67
2021/04/19 09:33:06;;;;;;;21.17;13.80;;;;;;;;;;5091154;28;20111;-67
2021/04/19 09:35:42;;;;;;;16.85;10.82;;;;;;;;;;5091475;28;20093;-67
2021/04/19 09:38:09;;;;;;;22.42;13.50;;;;;;;;;;5088482;28;20032;-68
2021/04/19 09:40:47;;;;;;;20.95;13.93;;;;;;;;;;5089862;28;20027;-69
2021/04/19 09:43:13;;;;;;;19.90;11.25;;;;;;;;;;5089795;28;20024;-69
2021/04/19 09:45:44;;;;;;;20.42;12.77;;;;;;;;;;5091154;28;20112;-69
2021/04/19 09:48:29;;;;;;;15.27;11.02;;;;;;;;;;5089988;28;20024;-69
2021/04/19 09:50:55;;;;;;;17.35;10.25;;;;;;;;;;5091753;28;20503;-69
2021/04/19 09:53:22;;;;;;;16.13;10.07;;;;;;;;;;5092385;28;20036;-69
2021/04/19 09:55:58;;;;;;;12.68;8.65;;;;;;;;;;5110342;27;20718;-68
2021/04/19 09:58:25;;;;;;;12.50;8.27;;;;;;;;;;5109650;28;20116;-68
2021/04/19 10:00:54;;;;;;;17.65;10.63;;;;;;;;;;5118867;28;20027;-68
2021/04/19 10:03:21;;;;;;;14.98;8.82;;;;;;;;;;5112169;28;20023;-67
2021/04/19 10:05:49;;;;;;;16.65;10.70;;;;;;;;;;5109160;28;20038;-70
2021/04/19 10:08:16;;;;;;;18.40;12.27;;;;;;;;;;5109773;28;20020;-68
2021/04/19 10:10:43;;;;;;;16.27;10.65;;;;;;;;;;5108829;28;20085;-68
2021/04/19 10:15:21;;;;;;;14.07;9.27;;;;;;;;;;5109836;27;20442;-69
2021/04/19 10:17:48;;;;;;;13.07;8.18;;;;;;;;;;5108300;28;20066;-69
2021/04/19 10:21:42;;;;;;;14.23;8.52;;;;;;;;;;5108955;27;20402;-69
2021/04/19 10:24:16;;;;;;;14.15;8.32;;;;;;;;;;5109799;28;20024;-69
2021/04/19 10:29:52;;;;;;;8.43;5.13;;;;;;;;;;5110312;27;20381;-69
2021/04/19 10:33:45;;;;;;;9.30;5.75;;;;;;;;;;5149899;27;20331;-68
2021/04/19 10:36:14;;;;;;;13.90;8.02;;;;;;;;;;5130445;28;20051;-67
2021/04/19 10:41:57;;;;;;;18.30;9.55;;;;;;;;;;5109256;27;20440;-68
2021/04/19 10:46:48;;;;;;;11.48;6.43;;;;;;;;;;5109807;27;20385;-69
2021/04/19 10:49:25;;;;;;;12.68;8.18;;;;;;;;;;5097675;28;20420;-68
2021/04/19 10:52:53;;;;;;;7.13;4.10;;;;;;;;;;5110359;27;20961;-66
2021/04/19 10:55:21;;;;;;;11.45;5.13;;;;;;;;;;5108334;28;20020;-67
2021/04/19 10:59:08;;;;;;;8.30;5.00;;;;;;;;;;5128592;27;20153;-65
2021/04/19 11:02:54;;;;;;;9.32;5.53;;;;;;;;;;5068193;28;21004;-69
2021/04/19 11:05:21;;;;;;;7.32;4.68;;;;;;;;;;5068772;28;20024;-69
2021/04/19 11:07:47;;;;;;;9.48;5.38;;;;;;;;;;5057853;28;20082;-67
2021/04/19 11:10:14;;;;;;;9.55;6.47;;;;;;;;;;5068032;28;20032;-68
2021/04/19 11:13:32;;;;;;;13.07;8.27;;;;;;;;;;5109395;27;20442;-67
2021/04/19 11:17:29;;;;;;;9.85;5.78;;;;;;;;;;5109642;27;20116;-67
2021/04/19 11:24:12;;;;;;;12.45;6.05;;;;;;;;;;5107464;27;20442;-71
2021/04/19 11:26:39;;;;;;;12.73;7.05;;;;;;;;;;5107061;28;20032;-70
2021/04/19 11:29:06;;;;;;;15.85;9.00;;;;;;;;;;5108803;28;20040;-71
2021/04/19 11:31:39;;;;;;;22.40;11.07;;;;;;;;;;5108346;28;20042;-70
2021/04/19 11:38:41;;;;;;;19.63;11.60;;;;;;;;;;5108632;27;20431;-70
2021/04/19 11:41:37;;;;;;;15.32;8.77;;;;;;;;;;5066199;28;20384;-71
2021/04/19 11:44:03;;;;;;;15.25;9.50;;;;;;;;;;5066614;28;20023;-69
2021/04/19 11:46:29;;;;;;;13.15;7.72;;;;;;;;;;5067494;28;20032;-68
2021/04/19 11:48:55;;;;;;;13.70;8.85;;;;;;;;;;5067974;28;20040;-71
2021/04/19 11:52:49;;;;;;;24.33;11.20;;;;;;;;;;5068301;28;20392;-71
2021/04/19 11:55:15;;;;;;;26.10;16.55;;;;;;;;;;5069950;28;20028;-68
2021/04/19 11:57:42;;;;;;;18.83;12.10;;;;;;;;;;5068090;28;20029;-67
2021/04/19 12:00:09;;;;;;;19.70;11.80;;;;;;;;;;5067046;28;20020;-67
2021/04/19 12:02:36;;;;;;;16.98;9.18;;;;;;;;;;5069407;28;20488;-67
2021/04/19 12:05:56;;;;;;;20.05;11.05;;;;;;;;;;5067656;28;20384;-69
2021/04/19 12:08:23;;;;;;;24.52;16.98;;;;;;;;;;5069207;28;20025;-67
2021/04/19 12:10:49;;;;;;;24.75;17.77;;;;;;;;;;5067068;28;20470;-68
2021/04/19 12:14:17;;;;;;;13.73;9.05;;;;;;;;;;5109152;27;20381;-67
2021/04/19 12:16:44;;;;;;;12.27;7.65;;;;;;;;;;5110365;28;20028;-68
2021/04/19 12:19:10;;;;;;;23.55;12.98;;;;;;;;;;5108867;28;20468;-67
2021/04/19 12:21:36;;;;;;;17.13;10.95;;;;;;;;;;5109474;28;20365;-68
2021/04/19 12:24:03;;;;;;;14.43;8.15;;;;;;;;;;5108168;28;20026;-69
2021/04/19 12:26:29;;;;;;;12.63;7.80;;;;;;;;;;5107661;28;20123;-69
2021/04/19 12:28:56;;;;;;;15.55;8.90;;;;;;;;;;5107918;28;20024;-69
2021/04/19 12:31:22;;;;;;;14.85;9.27;;;;;;;;;;5108446;28;20058;-68
2021/04/19 12:36:43;;;;;;;13.45;8.93;;;;;;;;;;5109266;27;20902;-70
2021/04/19 12:39:10;;;;;;;19.70;9.80;;;;;;;;;;5108019;28;20518;-68
2021/04/19 12:44:55;;;;;;;13.80;8.30;;;;;;;;;;5110604;27;20938;-67
2021/04/19 12:47:21;;;;;;;16.45;8.63;;;;;;;;;;5110360;28;20392;-68
2021/04/19 12:56:17;;;;;;;15.27;9.80;;;;;;;;;;5110033;27;20377;-67
2021/04/19 13:01:08;;;;;;;17.27;11.07;;;;;;;;;;5130904;27;20108;-68
2021/04/19 13:07:41;;;;;;;16.48;9.60;;;;;;;;;;5110242;27;20906;-67
2021/04/19 13:10:08;;;;;;;16.45;9.73;;;;;;;;;;5108798;28;20498;-68
2021/04/19 13:15:06;;;;;;;14.40;8.85;;;;;;;;;;5110347;27;20159;-68
2021/04/19 13:17:54;;;;;;;17.52;11.02;;;;;;;;;;5110482;27;20373;-67
2021/04/19 13:20:23;;;;;;;17.63;11.27;;;;;;;;;;5110623;28;20027;-67
2021/04/19 13:22:49;;;;;;;18.77;12.02;;;;;;;;;;5109940;28;20012;-67
2021/04/19 13:25:15;;;;;;;14.90;9.98;;;;;;;;;;5109966;28;20024;-68
2021/04/19 13:27:42;;;;;;;14.35;8.75;;;;;;;;;;5108982;28;20030;-68
2021/04/19 13:30:08;;;;;;;13.52;8.75;;;;;;;;;;5109784;28;20016;-68
2021/04/19 13:32:35;;;;;;;12.23;8.27;;;;;;;;;;5110373;28;20486;-68
2021/04/19 13:35:01;;;;;;;13.82;8.00;;;;;;;;;;5108902;28;20073;-68
2021/04/19 13:38:29;;;;;;;13.18;7.20;;;;;;;;;;5110004;27;20408;-67
2021/04/19 13:40:55;;;;;;;17.00;10.52;;;;;;;;;;5109010;28;20027;-68
2021/04/19 13:43:22;;;;;;;13.90;8.95;;;;;;;;;;5110284;28;20036;-68
2021/04/19 13:45:48;;;;;;;12.20;6.50;;;;;;;;;;5108661;28;20019;-68
2021/04/19 13:48:15;;;;;;;15.25;7.32;;;;;;;;;;5110106;28;20027;-68
2021/04/19 13:50:41;;;;;;;11.57;6.60;;;;;;;;;;5110341;28;20430;-68
2021/04/19 13:53:07;;;;;;;9.60;6.10;;;;;;;;;;5108763;28;20107;-69
2021/04/19 13:55:33;;;;;;;14.55;8.93;;;;;;;;;;5108945;28;20078;-69
2021/04/19 13:58:00;;;;;;;12.23;7.35;;;;;;;;;;5110097;28;20117;-69
2021/04/19 14:00:26;;;;;;;12.25;8.00;;;;;;;;;;5109709;28;20035;-68
2021/04/19 14:02:52;;;;;;;15.93;7.85;;;;;;;;;;5110125;28;20551;-68
2021/04/19 14:05:19;;;;;;;18.95;9.80;;;;;;;;;;5109667;28;20024;-69
2021/04/19 14:07:45;;;;;;;15.23;7.93;;;;;;;;;;5110013;28;20589;-69
2021/04/19 14:10:13;;;;;;;12.35;7.25;;;;;;;;;;5110034;28;20051;-69
2021/04/19 14:12:40;;;;;;;14.75;9.40;;;;;;;;;;5109640;28;20028;-70
2021/04/19 14:15:08;;;;;;;14.25;9.32;;;;;;;;;;5110068;28;20357;-69
2021/04/19 14:17:34;;;;;;;17.73;6.82;;;;;;;;;;5109731;28;20106;-69
2021/04/19 14:20:00;;;;;;;11.82;6.57;;;;;;;;;;5109312;28;20085;-69
2021/04/19 14:22:26;;;;;;;8.90;5.70;;;;;;;;;;5108404;28;20024;-69
2021/04/19 14:25:47;;;;;;;8.23;4.80;;;;;;;;;;5110526;27;20430;-68
2021/04/19 14:28:13;;;;;;;10.55;4.20;;;;;;;;;;5108665;28;20028;-68
2021/04/19 14:30:39;;;;;;;8.80;5.03;;;;;;;;;;5110316;28;20399;-68
2021/04/19 14:33:05;;;;;;;11.52;5.40;;;;;;;;;;5110551;28;20038;-68
2021/04/19 14:35:31;;;;;;;11.43;6.93;;;;;;;;;;5109929;28;20079;-69
2021/04/19 14:37:58;;;;;;;14.15;7.93;;;;;;;;;;5110122;28;20024;-67
2021/04/19 14:40:24;;;;;;;13.13;6.88;;;;;;;;;;5109864;28;20031;-68
2021/04/19 14:42:50;;;;;;;11.27;5.90;;;;;;;;;;5110108;28;20051;-68
2021/04/19 14:45:16;;;;;;;11.50;7.47;;;;;;;;;;5109984;28;20032;-67
2021/04/19 14:47:42;;;;;;;9.90;5.72;;;;;;;;;;5108262;28;20368;-68
2021/04/19 14:50:09;;;;;;;13.43;8.43;;;;;;;;;;5109723;28;20032;-67
2021/04/19 14:52:36;;;;;;;20.48;11.13;;;;;;;;;;5109832;28;20480;-67
2021/04/19 14:55:06;;;;;;;25.15;11.52;;;;;;;;;;5109508;28;20034;-68
2021/04/19 14:57:32;;;;;;;26.17;13.45;;;;;;;;;;5109788;28;20541;-68
2021/04/19 14:59:59;;;;;;;13.88;8.20;;;;;;;;;;5108512;28;20085;-67
2021/04/19 15:02:25;;;;;;;18.83;8.48;;;;;;;;;;5109464;28;20023;-69
2021/04/19 15:04:51;;;;;;;24.58;13.60;;;;;;;;;;5109688;28;20433;-68
2021/04/19 15:07:17;;;;;;;14.27;8.43;;;;;;;;;;5108406;28;20509;-67
2021/04/19 15:10:44;;;;;;;14.18;9.00;;;;;;;;;;5110256;27;20430;-69
2021/04/19 15:15:12;;;;;;;15.10;9.45;;;;;;;;;;5110287;27;20415;-67
2021/04/19 15:17:38;;;;;;;18.30;11.07;;;;;;;;;;5109975;28;20083;-69
2021/04/19 15:23:15;;;;;;;17.60;9.52;;;;;;;;;;5109852;27;20389;-67
2021/04/19 15:25:42;;;;;;;15.48;9.52;;;;;;;;;;5109003;28;20545;-67
2021/04/19 15:28:08;;;;;;;18.15;10.50;;;;;;;;;;5108937;28;20055;-68
2021/04/19 15:30:34;;;;;;;17.23;10.65;;;;;;;;;;5109924;28;20012;-67
2021/04/19 15:33:01;;;;;;;14.57;9.60;;;;;;;;;;5110374;28;20091;-67